Rhodanus — PGBC — position and weather

sailwx.info

Track history (hours):
 
Tides and Currents Weather Stations Pressure Air Temp Water Temp Dewpoint Dewpoint Depression Visibility Wind Speed Wind Dir Waves Ship Positions

Rhodanus

Last reported at 2015-Mar-28 21:27 UTC. Time now 2015-Mar-30 02:21 UTC.
Position N 43°21' E 008°03'.

Length 89 m; draft 3 m.

Type: Cargo ship. MMSI: 245848000.

Date/timePositionNaut miles runAvg speedWind from/ knotsBaromVisibWave heightAir tempDewpointWater temp
2015-Mar-28 21:27N 43°21' E 008°03'19 9.8
2015-Mar-28 19:33N 43°29' E 008°26'10 9.7
2015-Mar-28 18:33N 43°34' E 008°38'9 9.5
2015-Mar-28 17:33N 43°38' E 008°49'9 9.4
2015-Mar-28 16:33N 43°42' E 009°01'10 9.5
2015-Mar-28 15:32N 43°46' E 009°13'10 9.7
2015-Mar-28 14:33N 43°51' E 009°25'10 9.7
2015-Mar-28 13:33N 43°55' E 009°37'10 9.5
2015-Mar-28 12:33N 43°60' E 009°49'7 6.9
2015-Mar-28 11:32N 44°06' E 009°50'0 0.0
2015-Mar-28 10:32N 44°07' E 009°50'0 0.0
2015-Mar-28 09:32N 44°07' E 009°50'0 0.1
2015-Mar-28 08:33N 44°06' E 009°50'5 4.5
2015-Mar-28 07:33N 44°02' E 009°53'8 8.3
2015-Mar-28 06:33N 43°58' E 009°43'10 9.6
2015-Mar-28 05:33N 43°55' E 009°30'9 9.4
2015-Mar-28 04:33N 43°51' E 009°18'9 9.1
2015-Mar-28 03:33N 43°47' E 009°07'1110.0
2015-Mar-28 02:29N 43°43' E 008°53'135 8.3
2015-Mar-27 10:22N 43°06' E 005°55'1 1.6
2015-Mar-27 09:32N 43°06' E 005°53'0 0.0
2015-Mar-27 08:31N 43°06' E 005°53'0 0.0
2015-Mar-27 07:29N 43°06' E 005°53'0 0.0
2015-Mar-27 06:28N 43°06' E 005°53'0 0.0
2015-Mar-27 05:31N 43°06' E 005°53'0 0.0
2015-Mar-27 04:31N 43°06' E 005°53'0 0.0
2015-Mar-27 03:32N 43°06' E 005°53'0 0.0
2015-Mar-27 02:32N 43°06' E 005°53'0 0.0
2015-Mar-27 01:28N 43°06' E 005°53'0 0.0
2015-Mar-27 00:32N 43°06' E 005°53'0 0.0
2015-Mar-26 23:31N 43°06' E 005°53'0 0.0
2015-Mar-26 22:31N 43°06' E 005°53'0 0.0
2015-Mar-26 21:32N 43°06' E 005°53'0 0.0
2015-Mar-26 20:32N 43°06' E 005°53'0 0.0
2015-Mar-26 19:33N 43°06' E 005°53'228 4.7
2015-Mar-24 19:24N 39°51' E 003°14'34 1.0
2015-Mar-23 09:33N 39°17' E 003°17'17 8.4
2015-Mar-23 07:29N 39°04' E 003°03'437 8.7
2015-Mar-21 05:19N 35°59' W 005°17'  
Track history (hours):
 
Tides and Currents Weather Stations Pressure Air Temp Water Temp Dewpoint Dewpoint Depression Visibility Wind Speed Wind Dir Waves Ship Positions

Rhodanus

Last reported at 2015-Mar-28 21:27 UTC. Time now 2015-Mar-30 02:21 UTC.
Position N 43°21' E 008°03'.

Length 89 m; draft 3 m.

Type: Cargo ship. MMSI: 245848000.

Date/timePositionNaut miles runAvg speedWind from/ knotsBaromVisibWave heightAir tempDewpointWater temp
2015-Mar-28 21:27N 43°21' E 008°03'19 9.8
2015-Mar-28 19:33N 43°29' E 008°26'10 9.7
2015-Mar-28 18:33N 43°34' E 008°38'9 9.5
2015-Mar-28 17:33N 43°38' E 008°49'9 9.4
2015-Mar-28 16:33N 43°42' E 009°01'10 9.5
2015-Mar-28 15:32N 43°46' E 009°13'10 9.7
2015-Mar-28 14:33N 43°51' E 009°25'10 9.7
2015-Mar-28 13:33N 43°55' E 009°37'10 9.5
2015-Mar-28 12:33N 43°60' E 009°49'7 6.9
2015-Mar-28 11:32N 44°06' E 009°50'0 0.0
2015-Mar-28 10:32N 44°07' E 009°50'0 0.0
2015-Mar-28 09:32N 44°07' E 009°50'0 0.1
2015-Mar-28 08:33N 44°06' E 009°50'5 4.5
2015-Mar-28 07:33N 44°02' E 009°53'8 8.3
2015-Mar-28 06:33N 43°58' E 009°43'10 9.6
2015-Mar-28 05:33N 43°55' E 009°30'9 9.4
2015-Mar-28 04:33N 43°51' E 009°18'9 9.1
2015-Mar-28 03:33N 43°47' E 009°07'1110.0
2015-Mar-28 02:29N 43°43' E 008°53'135 8.3
2015-Mar-27 10:22N 43°06' E 005°55'1 1.6
2015-Mar-27 09:32N 43°06' E 005°53'0 0.0
2015-Mar-27 08:31N 43°06' E 005°53'0 0.0
2015-Mar-27 07:29N 43°06' E 005°53'0 0.0
2015-Mar-27 06:28N 43°06' E 005°53'0 0.0
2015-Mar-27 05:31N 43°06' E 005°53'0 0.0
2015-Mar-27 04:31N 43°06' E 005°53'0 0.0
2015-Mar-27 03:32N 43°06' E 005°53'0 0.0
2015-Mar-27 02:32N 43°06' E 005°53'0 0.0
2015-Mar-27 01:28N 43°06' E 005°53'0 0.0
2015-Mar-27 00:32N 43°06' E 005°53'0 0.0
2015-Mar-26 23:31N 43°06' E 005°53'0 0.0
2015-Mar-26 22:31N 43°06' E 005°53'0 0.0
2015-Mar-26 21:32N 43°06' E 005°53'0 0.0
2015-Mar-26 20:32N 43°06' E 005°53'0 0.0
2015-Mar-26 19:33N 43°06' E 005°53'228 4.7
2015-Mar-24 19:24N 39°51' E 003°14'34 1.0
2015-Mar-23 09:33N 39°17' E 003°17'17 8.4
2015-Mar-23 07:29N 39°04' E 003°03'437 8.7
2015-Mar-21 05:19N 35°59' W 005°17'  

Dump ship's entire track history